createdAt,value
2022-10-01T13:56:13.352Z,18.80
2022-10-01T13:57:15.554Z,19.00
2022-10-01T14:54:43.765Z,24.90
2022-10-01T14:55:45.893Z,25.30
2022-10-01T14:56:44.742Z,23.90
2022-10-01T14:57:44.929Z,23.00
2022-10-01T15:00:55.291Z,23.40
2022-10-01T15:01:56.116Z,23.70
2022-10-01T15:02:56.123Z,22.60
2022-10-01T15:03:56.162Z,23.80
2022-10-01T15:04:56.113Z,22.80
2022-10-01T15:05:56.416Z,23.30
2022-10-01T15:06:56.024Z,23.70
2022-10-01T15:07:56.027Z,24.40
2022-10-01T15:08:56.069Z,23.30
2022-10-01T15:10:04.921Z,24.50
2022-10-01T15:10:55.979Z,23.40
2022-10-01T15:11:58.072Z,24.40
2022-10-01T15:12:55.969Z,23.90
2022-10-01T15:13:55.985Z,24.30
2022-10-01T15:14:56.795Z,24.90
2022-10-01T15:18:54.703Z,26.30
2022-10-01T15:19:54.780Z,26.10
2022-10-01T15:20:55.720Z,25.50
2022-10-01T15:21:55.787Z,27.00
2022-10-01T15:24:56.470Z,27.00
2022-10-01T15:25:57.337Z,28.20
2022-10-01T15:26:57.396Z,25.90
2022-10-01T15:37:06.766Z,26.30
2022-10-01T15:38:06.545Z,26.90
2022-10-01T15:39:07.305Z,25.20
2022-10-01T15:44:24.069Z,27.30
2022-10-01T15:44:48.685Z,28.20
2022-10-01T15:45:48.715Z,26.10
2022-10-01T15:46:49.599Z,30.20
2022-10-01T15:47:49.870Z,29.40
2022-10-01T15:48:49.426Z,30.60
2022-10-01T15:49:48.693Z,30.90
2022-10-01T15:50:48.563Z,29.10
2022-10-01T15:51:48.595Z,30.40
2022-10-01T15:52:48.636Z,32.30
2022-10-01T15:56:07.066Z,38.40
2022-10-01T15:57:08.006Z,36.60
2022-10-01T15:58:09.235Z,34.20
2022-10-01T15:59:08.793Z,29.80
2022-10-01T16:00:10.761Z,26.40
2022-10-01T16:01:08.183Z,26.40
2022-10-01T16:02:07.978Z,26.30
2022-10-01T16:03:07.972Z,26.40
2022-10-01T16:04:09.855Z,28.50
2022-10-01T16:05:07.973Z,28.80
2022-10-01T16:06:10.383Z,30.00
2022-10-01T16:07:07.927Z,27.90
2022-10-01T16:08:07.854Z,28.70
2022-10-01T16:09:07.885Z,30.30
2022-10-01T16:10:07.923Z,28.60
2022-10-01T16:11:08.786Z,26.40
2022-10-01T16:12:08.766Z,25.30
2022-10-01T16:13:46.359Z,25.30
2022-10-01T16:14:07.817Z,25.10
2022-10-01T16:15:08.207Z,24.70
2022-10-01T16:16:07.945Z,25.40
2022-10-01T16:17:07.790Z,24.60
2022-10-01T16:18:07.824Z,23.90
2022-10-01T16:19:07.809Z,23.60
2022-10-01T16:20:10.054Z,25.20
2022-10-01T16:21:08.698Z,25.20
2022-10-01T16:22:10.285Z,25.30
2022-10-01T16:37:18.508Z,25.60
2022-10-01T16:38:10.234Z,26.00
2022-10-01T16:39:32.624Z,25.60
2022-10-01T16:40:11.683Z,24.10
2022-10-01T16:41:08.307Z,23.50
2022-10-01T16:42:23.695Z,24.50
2022-10-01T16:43:08.293Z,24.40
2022-10-01T16:44:32.605Z,23.50
2022-10-01T16:45:08.271Z,24.80
2022-10-01T16:46:08.988Z,25.40
2022-10-01T16:56:04.277Z,25.90
2022-10-01T16:57:07.627Z,25.30
2022-10-01T16:58:05.016Z,25.80
2022-10-01T16:59:05.410Z,23.20
2022-10-01T17:00:04.477Z,22.00
2022-10-01T17:01:04.491Z,21.40
2022-10-01T17:02:04.483Z,20.70
2022-10-01T17:03:05.739Z,21.30
2022-10-01T17:04:09.830Z,22.50
2022-10-01T17:05:05.001Z,24.50
2022-10-01T17:06:05.266Z,22.30
2022-10-01T17:07:05.961Z,23.40
2022-10-01T17:08:04.359Z,22.90
2022-10-01T17:09:04.313Z,22.00
2022-10-01T17:10:05.050Z,21.10
2022-10-01T17:11:04.997Z,22.10
2022-10-01T17:12:05.297Z,22.40
2022-10-01T17:13:04.297Z,23.00
2022-10-01T17:14:04.975Z,23.90
2022-10-01T17:15:04.220Z,24.70
2022-10-01T17:16:04.255Z,23.10
2022-10-01T17:17:04.211Z,23.50
2022-10-01T17:18:05.012Z,26.70
2022-10-01T17:19:04.981Z,27.60
2022-10-01T17:20:04.241Z,27.30
2022-10-01T17:21:04.229Z,29.20
2022-10-01T17:22:04.174Z,29.30
2022-10-01T17:23:04.135Z,29.70
2022-10-01T17:24:04.204Z,31.10
2022-10-01T17:25:04.666Z,31.20
2022-10-01T17:26:04.985Z,31.90
2022-10-01T17:27:04.120Z,31.10
2022-10-01T17:28:04.180Z,31.70
2022-10-01T17:29:06.086Z,31.00
2022-10-01T17:30:13.741Z,32.30
2022-10-01T17:31:06.800Z,31.60
2022-10-01T17:32:04.133Z,32.30
2022-10-01T17:33:04.038Z,33.20
2022-10-01T17:34:04.053Z,32.80
2022-10-01T17:35:04.015Z,32.30
2022-10-01T17:36:04.010Z,31.60
2022-10-01T17:37:04.059Z,33.50
2022-10-01T17:38:03.985Z,33.50
2022-10-01T17:39:04.943Z,32.10
2022-10-01T17:40:03.996Z,32.60
2022-10-01T17:41:03.978Z,32.40
2022-10-01T17:42:04.699Z,33.60
2022-10-01T17:43:03.978Z,32.70
2022-10-01T17:44:05.436Z,32.80
2022-10-01T17:45:04.493Z,31.50
2022-10-01T17:46:05.841Z,31.70
2022-10-01T17:47:03.922Z,33.00
2022-10-01T17:48:03.860Z,33.20
2022-10-01T17:49:04.867Z,33.90
2022-10-01T17:50:03.872Z,33.70
2022-10-01T17:51:03.879Z,36.30
2022-10-01T17:52:03.878Z,37.20
2022-10-01T17:53:03.873Z,33.10
2022-10-01T17:54:03.790Z,33.70
2022-10-01T17:55:03.833Z,34.00
2022-10-01T17:56:03.807Z,36.70
2022-10-01T17:57:03.812Z,35.80
2022-10-01T17:58:03.755Z,36.40
2022-10-01T17:59:03.742Z,36.10
2022-10-01T18:00:04.741Z,36.30
2022-10-01T18:01:04.716Z,34.70
2022-10-01T18:02:18.591Z,35.60
2022-10-01T18:03:03.840Z,36.30
2022-10-01T18:04:03.765Z,34.10
2022-10-01T18:05:03.799Z,35.20
2022-10-01T18:06:04.682Z,35.20
2022-10-01T18:07:05.476Z,35.60
2022-10-01T18:08:03.683Z,37.10
2022-10-01T18:09:05.193Z,35.00
2022-10-01T18:10:04.572Z,34.40
2022-10-01T18:11:07.249Z,34.30
2022-10-01T18:12:08.623Z,35.30
2022-10-01T18:13:03.782Z,34.50
2022-10-01T18:14:04.591Z,33.70
2022-10-01T18:15:03.756Z,35.60
2022-10-01T18:16:03.794Z,35.00
2022-10-01T18:17:03.544Z,33.60
2022-10-01T18:20:04.305Z,32.40
2022-10-01T18:21:03.626Z,33.30
2022-10-01T18:22:11.832Z,33.60
2022-10-01T18:23:04.024Z,34.10
2022-10-01T18:24:05.104Z,33.60
2022-10-01T18:25:03.532Z,34.50
2022-10-01T18:26:03.527Z,34.50
2022-10-01T18:27:03.557Z,33.60
2022-10-01T18:28:03.550Z,34.00
2022-10-01T18:29:03.499Z,32.30
2022-10-01T18:30:03.529Z,33.60
2022-10-01T18:31:03.575Z,34.10
2022-10-01T18:32:04.318Z,32.90
2022-10-01T18:33:03.926Z,32.80
2022-10-01T18:34:03.484Z,32.10
2022-10-01T18:35:03.485Z,32.90
2022-10-01T18:36:03.494Z,32.70
2022-10-01T18:37:04.040Z,34.10
2022-10-01T18:38:03.503Z,32.90
2022-10-01T18:39:03.517Z,33.30
2022-10-01T18:40:03.947Z,33.20
2022-10-01T18:41:03.965Z,33.50
2022-10-01T18:42:03.525Z,33.40
2022-10-01T18:43:03.986Z,32.40
2022-10-01T18:44:03.277Z,32.20
2022-10-01T18:45:03.328Z,32.00
2022-10-01T18:46:04.050Z,32.40
2022-10-01T18:47:03.323Z,32.50
2022-10-01T18:48:03.342Z,33.70
2022-10-01T18:49:03.474Z,32.70
2022-10-01T18:50:03.150Z,31.90
2022-10-01T18:51:03.141Z,33.10
2022-10-01T18:52:04.064Z,34.40
2022-10-01T18:53:03.180Z,32.10
2022-10-01T18:54:03.108Z,33.80
2022-10-01T18:55:05.030Z,34.60
2022-10-01T18:56:04.192Z,33.20
2022-10-01T18:57:03.131Z,33.90
2022-10-01T18:58:03.093Z,33.50
2022-10-01T18:59:03.124Z,33.20
2022-10-01T19:00:04.062Z,33.80
2022-10-01T19:01:03.391Z,32.00
2022-10-01T19:02:04.650Z,32.50
2022-10-01T19:03:03.952Z,33.50
2022-10-01T19:04:03.097Z,31.00
2022-10-01T19:05:03.046Z,32.80
2022-10-01T19:06:03.064Z,32.60
2022-10-01T19:07:03.023Z,32.60
2022-10-01T19:08:03.804Z,34.00
2022-10-01T19:09:07.212Z,34.00
2022-10-01T19:10:02.980Z,33.20
2022-10-01T19:11:02.984Z,32.90
2022-10-01T19:12:02.939Z,32.80
2022-10-01T19:13:03.002Z,33.30
2022-10-01T19:14:02.954Z,32.50
2022-10-01T19:15:02.931Z,34.90
2022-10-01T19:16:03.745Z,35.00
2022-10-01T19:17:02.854Z,36.10
2022-10-01T19:18:02.896Z,33.20
2022-10-01T19:19:04.829Z,27.80
2022-10-01T19:20:02.876Z,25.70
2022-10-01T19:21:02.834Z,22.70
2022-10-01T19:22:03.764Z,21.10
2022-10-01T19:23:02.836Z,21.30
2022-10-01T19:24:02.777Z,22.20
2022-10-01T19:25:02.802Z,23.10
2022-10-01T19:26:02.788Z,22.90
2022-10-01T19:27:03.543Z,23.00
2022-10-01T19:28:03.780Z,23.40
2022-10-01T19:29:03.595Z,22.10
2022-10-01T19:30:02.772Z,22.70
2022-10-01T19:31:03.650Z,22.80
2022-10-01T19:32:04.184Z,21.90
2022-10-01T19:33:02.702Z,21.10
2022-10-01T19:34:02.732Z,20.20
2022-10-01T19:35:02.706Z,18.80
2022-10-01T19:36:02.723Z,20.20
2022-10-01T19:37:02.714Z,18.90
2022-10-01T19:38:02.663Z,18.70
2022-10-01T19:39:02.676Z,18.60
2022-10-01T19:40:03.491Z,18.70
2022-10-01T19:41:04.971Z,19.40
2022-10-01T19:42:02.645Z,19.10
2022-10-01T19:43:03.546Z,19.20
2022-10-01T19:44:02.626Z,19.60
2022-10-01T19:45:02.554Z,19.70
2022-10-01T19:46:02.583Z,19.30
2022-10-01T19:47:02.691Z,20.10
2022-10-01T19:48:05.004Z,20.90
2022-10-01T19:49:02.575Z,19.60
2022-10-01T19:50:02.538Z,19.30
2022-10-01T19:51:04.402Z,19.10
2022-10-01T19:52:02.496Z,18.90
2022-10-01T19:53:02.513Z,19.60
2022-10-01T19:54:03.503Z,19.10
2022-10-01T19:55:05.038Z,19.70
2022-10-01T19:56:02.494Z,19.10
2022-10-01T19:57:03.088Z,19.30
2022-10-01T19:58:02.466Z,19.90
2022-10-01T19:59:04.986Z,20.00
2022-10-01T20:00:03.596Z,19.50
2022-10-01T20:01:02.423Z,18.60
2022-10-01T20:02:03.685Z,19.80
2022-10-01T20:03:02.365Z,19.20
2022-10-01T20:04:02.348Z,18.70
2022-10-01T20:05:03.854Z,17.80
2022-10-01T20:06:01.343Z,18.20
2022-10-01T20:07:03.078Z,17.40
2022-10-01T20:08:02.317Z,17.20
2022-10-01T20:09:02.339Z,16.50
2022-10-01T20:10:05.630Z,15.60
2022-10-01T20:11:02.321Z,15.00
2022-10-01T20:12:03.061Z,14.50
2022-10-01T20:13:02.330Z,14.50
2022-10-01T20:14:02.958Z,13.90
2022-10-01T20:15:02.301Z,13.90
2022-10-01T20:16:02.314Z,14.60
2022-10-01T20:17:02.221Z,13.70
2022-10-01T20:18:02.202Z,14.00
2022-10-01T20:19:02.260Z,13.60
2022-10-01T20:20:07.586Z,13.60
2022-10-01T20:21:02.141Z,13.40
2022-10-01T20:22:02.158Z,14.00
2022-10-01T20:23:03.862Z,13.60
2022-10-01T20:24:02.127Z,15.40
2022-10-01T20:25:03.045Z,16.30
2022-10-01T20:26:02.157Z,15.90
2022-10-01T20:27:02.113Z,15.50
2022-10-01T20:28:02.120Z,17.20
2022-10-01T20:29:02.100Z,15.60
2022-10-01T20:30:02.057Z,16.90
2022-10-01T20:31:03.045Z,17.30
2022-10-01T20:32:02.050Z,18.00
2022-10-01T20:33:02.027Z,17.80
2022-10-01T20:34:02.064Z,18.00
2022-10-01T20:35:06.504Z,18.00
2022-10-01T20:36:02.015Z,18.30
2022-10-01T20:37:04.262Z,18.30
2022-10-01T20:38:02.713Z,16.90
2022-10-01T20:39:02.014Z,17.10
2022-10-01T20:40:01.956Z,18.20
2022-10-01T20:41:01.937Z,18.40
2022-10-01T20:42:01.933Z,17.70
2022-10-01T20:43:01.962Z,17.70
2022-10-01T20:44:01.926Z,18.20
2022-10-01T20:45:01.840Z,18.00
2022-10-01T20:46:01.913Z,18.70
2022-10-01T20:47:01.875Z,19.50
2022-10-01T20:48:01.871Z,19.50
2022-10-01T20:49:02.773Z,18.80
2022-10-01T20:50:08.829Z,19.70
2022-10-01T20:51:04.654Z,18.20
2022-10-01T20:52:06.316Z,18.20
2022-10-01T20:53:03.918Z,17.60
2022-10-01T20:54:02.614Z,17.20
2022-10-01T20:55:02.074Z,17.00
2022-10-01T20:56:01.742Z,18.10
2022-10-01T20:57:07.119Z,16.60
2022-10-01T20:58:01.828Z,17.10
2022-10-01T20:59:01.701Z,16.10
2022-10-01T21:00:02.723Z,15.10
2022-10-01T21:01:03.639Z,14.80
2022-10-01T21:02:02.859Z,14.20
2022-10-01T21:03:02.554Z,13.70
2022-10-01T21:04:25.941Z,13.10
2022-10-01T21:05:01.670Z,13.50
2022-10-01T21:06:01.721Z,12.80
2022-10-01T21:07:03.634Z,12.40
2022-10-01T21:08:03.335Z,12.20
2022-10-01T21:09:01.633Z,11.70
2022-10-01T21:10:03.173Z,11.70
2022-10-01T21:11:02.322Z,11.90
2022-10-01T21:12:05.250Z,11.00
2022-10-01T21:13:01.612Z,10.30
2022-10-01T21:14:02.102Z,10.40
2022-10-01T21:15:01.546Z,11.20
2022-10-01T21:16:01.607Z,10.80
2022-10-01T21:17:01.564Z,11.30
2022-10-01T21:18:01.527Z,10.80
2022-10-01T21:19:03.079Z,10.80
2022-10-01T21:20:01.559Z,10.70
